Historyczne dane pomiarowe

Dodano dane terminowe – wersja testowa.

Dane z okresu 1951-2019

Wersja bazy: 1.34 [2019-03-16, lista zmian], aktualizacja planowana na 2019-04-15

Dane meteo z obszaru Polski uzyskane na podstawie danych udostępnionych przez Instytut Meteorologii i Gospodarki Wodnej – Państwowy Instytut Badawczy.

 

Wybierz Datę:    

       

TemperaturaWilgotnośćWiatrCiśnienieOpadyŚniegCzas trwania zjawisk
 Stacja t tx tn tng RH VA  wxwx mslp ppp RRR   cm mm wxwxwxwxwxwxwx
2019-10-31 0.3 6.4 -3.2 -4.5 89.9 5.6- 0.5--1029.11002.6 0.0 0.0 0.0x- 4.6-------
2019-10-30 3.3 7.5 0.1 -1.8 84.5 6.5- 1.3--1029.21002.9 0.0 0.0 0.0x- 4.7-------
2019-10-29 5.1 10.3 0.5 -1.3 88.0 7.7- 0.9--1022.4 996.5 0.0 0.0 0.0x- 3.4-------
2019-10-28 7.6 17.3 3.4 1.7 81.9 8.6- 1.5--1020.4 994.7 0.1 0.1 0.0x- 3.0-------
2019-10-27 14.8 24.3 7.8 4.2 66.4 10.3- 1.1--1016.8 991.9 0.9 0.0 0.9x- 8.6-------
2019-10-26 11.9 21.4 5.4 3.6 79.4 10.8- 0.5--1022.3 997.0 0.0 0.0 0.0x- 8.5-------
2019-10-25 12.4 21.6 5.6 3.4 74.9 10.4- 1.0--1020.2 995.0 0.0 0.0 0.0x- 8.5-------
2019-10-24 15.0 26.0 4.9 3.4 68.0 10.8- 1.1--1015.5 990.6 0.0 0.0 0.0x- 8.5-------
2019-10-23 12.9 20.9 7.4 5.3 88.8 13.2- 0.6--1021.7 996.5 0.0 0.0 0.0x- 4.8-------
2019-10-22 13.4 22.8 7.2 5.3 82.9 12.5- 0.5--1023.3 998.1 0.0 0.0 0.0x- 8.7-------
2019-10-21 15.1 24.1 8.9 6.3 75.1 12.4- 0.9--1019.4 994.4 0.0 0.0 0.0x- 8.9-------
2019-10-20 16.0 24.7 8.7 5.9 70.0 12.1- 1.5--1016.0 991.2 0.0 0.0 0.0x- 8.9-------
2019-10-19 13.3 21.1 6.2 4.4 75.8 11.2- 1.1--1015.3 990.3 0.0 0.0 0.0x- 6.5-------
2019-10-18 12.6 22.0 5.8 3.9 77.3 10.8- 0.8--1016.2 991.1 0.0 0.0 0.0x- 8.9-------
2019-10-17 12.2 21.0 5.2 3.5 71.8 9.5- 0.8--1018.9 993.7 0.0 0.0 0.0x- 9.0-------
2019-10-16 16.6 23.8 10.3 7.1 67.9 12.4- 1.5--1013.5 988.9 0.1 0.1 0.0x- 6.9-------
2019-10-15 17.4 25.2 10.1 7.4 65.9 12.4- 1.9--1013.6 989.0 0.0 0.0 0.0x- 9.1-------
2019-10-14 16.2 24.7 9.5 6.6 72.1 12.8- 1.1--1019.1 994.2 0.0 0.0 0.0x- 9.2-------
2019-10-13 16.1 22.7 9.8 6.5 64.3 11.5- 2.1--1019.6 994.7 0.0 0.0 0.0x- 9.2-------
2019-10-12 15.2 23.2 9.2 7.5 60.5 10.3- 2.3--1017.7 992.8 0.0 0.0 0.0x- 9.3-------
2019-10-11 11.3 16.8 4.8 3.5 72.5 9.4- 1.5--1020.6 995.3 0.0 0.0 0.0x- 8.0-------
2019-10-10 11.8 15.7 8.0 6.4 76.6 10.4- 1.6--1013.4 988.3 1.8 1.0 0.8x- 3.5-------
2019-10-09 10.6 13.3 8.5 7.8 81.4 10.4- 2.0--1012.2 987.1 12.4 0.7 11.7x- 0.0-------
2019-10-08 6.2 13.3 -2.6 -3.9 68.0 6.1- 1.9--1017.4 991.7 1.7 0.3 1.4x- 4.5-------
2019-10-07 2.6--- 77.5 5.4- 0.5--1020.9 994.8 0.0 0.0 0.0x- 8.3-------
2019-10-06 5.8 9.5 2.6 1.5 84.6 7.8- 1.8--1018.0 992.3 0.0 0.0 0.0x- 1.2-------
2019-10-05 8.3 10.4 5.1 3.5 91.0 10.0- 1.6--1009.7 984.4 4.6 2.4 2.2x- 0.2-------
2019-10-04 8.7 12.2 7.3 6.8 81.4 9.1- 0.9--1013.7 988.3 0.1 0.1 0.0x- 1.8-------
2019-10-03 9.2 15.2 8.1 7.9 82.4 9.5- 1.5--1012.3 987.0 0.1 0.0 0.1x- 1.8-------
2019-10-02 17.0 24.3 13.1 10.1 68.1 12.9- 1.8--1003.8 979.4 23.5 5.6 17.9x- 4.9-------
2019-10-01 16.3 22.2 10.2 8.5 58.3 10.4----1009.1 984.5 0.0 0.0 0.0x- 8.8-------
2019-09-30 16.9 21.5 12.6 12.0 64.0 12.1- 3.0--1002.5 978.1 2.4 2.4 0.0x- 2.7-------
2019-09-29 15.0 21.5 8.1 6.7 70.9 11.5- 1.6--1011.3 986.5 0.0 0.0 0.0x- 8.2-------
2019-09-28 15.2 20.0 11.6 9.8 76.3 13.1- 1.0--1014.5 989.7 0.0 0.0 0.0x- 1.0-------
2019-09-27 16.9 22.5 10.7 9.2 72.5 13.5- 0.8--1015.0 990.4 0.0 0.0 0.0x- 7.4-------
2019-09-26 15.4 19.3 12.3 10.8 79.0 13.6- 1.5--1012.0 987.2 0.9 0.9 0.0x- 6.9-------
2019-09-25 13.3 19.6 7.3 6.4 85.0 12.9- 1.4--1009.9 985.1 0.2 0.0 0.2x- 1.3-------
2019-09-24 11.0 14.7 10.0 9.4 86.4 11.3- 1.4--1016.0 990.8 0.0 0.0 0.0x- 2.8-------
2019-09-23 12.6 20.3 4.5 3.6 74.0 10.3- 1.5--1016.0 990.9 0.0 0.0 0.0x- 8.6-------
2019-09-22 12.8 21.9 4.2 3.4 69.8 9.7- 1.0--1019.1 994.0 0.0 0.0 0.0x- 9.3-------
2019-09-21 11.5 18.3 5.5 4.5 72.0 9.3- 0.9--1025.3 999.9 0.0 0.0 0.0x- 9.6-------
2019-09-20 8.4 14.6 4.3 3.1 84.4 9.2- 0.9--1026.91001.1 0.7 0.7 0.0x- 5.0-------
2019-09-19 9.4 13.5 7.2 6.0 74.1 8.7- 1.9--1024.2 998.6 1.4 0.7 0.7x- 4.4-------
2019-09-18 10.3 14.2 8.2 7.7 64.9 8.0- 2.3--1018.2 992.8 0.0 0.0 0.0x- 3.4-------
2019-09-17 13.2 16.9 11.5 11.6 76.9 11.4- 1.8--1013.2 988.3 0.8 0.0 0.8x- 2.8-------
2019-09-16 15.5 20.9 10.6 9.3 75.8 13.1- 1.4--1016.6 991.7 3.5 1.1 2.4x- 4.0-------
2019-09-15 12.9 22.0 4.3 3.8 72.0 10.1- 0.6--1024.5 999.2 0.0 0.0 0.0x- 9.6-------
2019-09-14 14.2 20.0 10.6 9.4 68.6 10.9- 1.5--1031.41006.1 0.0 0.0 0.0x- 8.0-------
2019-09-13 17.4 23.9 9.7 8.8 74.0 14.2- 0.9--1028.21003.3 0.2 0.0 0.2x- 7.1-------
2019-09-12 16.3 24.4 9.3 8.5 75.5 13.3- 0.5--1027.71002.6 0.0 0.0 0.0x- 9.3-------
2019-09-11 15.8 24.0 8.6 8.0 76.9 13.2- 0.4--1024.3 999.3 0.0 0.0 0.0x- 9.9-------
2019-09-10 15.5 21.2 10.4 9.3 72.1 12.3- 1.5--1019.4 994.4 0.0 0.0 0.0x- 8.8-------
2019-09-09 17.2 23.0 15.1 13.5 79.5 15.3- 1.8--1013.2 988.6 15.1 8.5 6.6x- 1.2-------
2019-09-08 18.5 23.4 15.3 15.3 79.3 16.6- 1.3--1017.0 992.4 0.0 0.0 0.0x- 6.7-------
2019-09-07 17.8 25.3 11.9 10.5 69.3 13.8- 1.5--1018.0 993.3 7.0 0.0 7.0x- 6.0-------
2019-09-06 17.0 21.9 13.3 12.1 67.6 12.8- 1.6--1022.0 997.1 0.0 0.0 0.0x- 9.3-------
2019-09-05 17.1 25.6 9.7 8.5 69.1 12.6- 0.4--1015.7 991.0 0.0 0.0 0.0x- 10.2-------
2019-09-04 15.3 22.9 8.0 7.4--- 0.5--1020.7 995.7 0.0 0.0 0.0x- 9.4-------
2019-09-03 13.1 17.2 12.3 11.4--- 0.9--1023.1 997.9 5.7 5.7 0.0x- 0.0-------
2019-09-02 19.0 24.3 16.6 15.3 87.0 19.1- 1.0--1015.8 991.3 18.7 8.2 10.5x- 3.6-------
5071.7 ms

 

Źródłem pochodzenia danych jest Instytut Meteorologii i Gospodarki Wodnej – Państwowy Instytut Badawczy. Dane Instytutu Meteorologii i Gospodarki Wodnej – Państwowego Instytutu Badawczego zostały przetworzone.

Dane źródłowe można odnaleźć na stronie https://dane.imgw.pl